sensor_id;sensor_type;location;lat;lon;timestamp;pressure;altitude;pressure_sealevel;temperature;humidity
30919;BME280;76545;51.606;5.884;2024-02-23T00:01:04;98727.16;;;5.43;95.96
30919;BME280;76545;51.606;5.884;2024-02-23T00:03:30;98733.69;;;5.54;100.00
30919;BME280;76545;51.606;5.884;2024-02-23T00:05:58;98745.53;;;5.92;97.09
30919;BME280;76545;51.606;5.884;2024-02-23T00:08:24;98741.50;;;6.00;99.21
30919;BME280;76545;51.606;5.884;2024-02-23T00:10:50;98740.88;;;5.84;96.64
30919;BME280;76545;51.606;5.884;2024-02-23T00:13:16;98748.56;;;5.80;96.34
30919;BME280;76545;51.606;5.884;2024-02-23T00:15:42;98754.38;;;5.72;96.53
30919;BME280;76545;51.606;5.884;2024-02-23T00:18:09;98761.84;;;5.63;96.72
30919;BME280;76545;51.606;5.884;2024-02-23T00:20:35;98772.31;;;5.64;98.44
30919;BME280;76545;51.606;5.884;2024-02-23T00:23:02;98758.75;;;5.50;96.22
30919;BME280;76545;51.606;5.884;2024-02-23T00:25:28;98776.31;;;5.78;96.69
30919;BME280;76545;51.606;5.884;2024-02-23T00:27:54;98772.53;;;5.69;97.03
30919;BME280;76545;51.606;5.884;2024-02-23T00:30:20;98778.09;;;5.79;96.40
30919;BME280;76545;51.606;5.884;2024-02-23T00:32:46;98772.47;;;5.68;97.20
30919;BME280;76545;51.606;5.884;2024-02-23T00:35:12;98778.41;;;5.63;98.07
30919;BME280;76545;51.606;5.884;2024-02-23T00:37:38;98775.06;;;5.91;97.81
30919;BME280;76545;51.606;5.884;2024-02-23T00:40:05;98786.31;;;5.67;96.86
30919;BME280;76545;51.606;5.884;2024-02-23T00:42:31;98783.59;;;5.86;95.94
30919;BME280;76545;51.606;5.884;2024-02-23T00:44:57;98784.22;;;5.56;96.24
30919;BME280;76545;51.606;5.884;2024-02-23T00:47:23;98791.63;;;5.68;97.16
30919;BME280;76545;51.606;5.884;2024-02-23T00:49:49;98798.66;;;5.48;98.29
30919;BME280;76545;51.606;5.884;2024-02-23T00:52:15;98795.91;;;5.45;96.32
30919;BME280;76545;51.606;5.884;2024-02-23T00:54:42;98797.81;;;5.49;96.13
30919;BME280;76545;51.606;5.884;2024-02-23T00:57:08;98804.38;;;5.60;96.46
30919;BME280;76545;51.606;5.884;2024-02-23T00:59:34;98805.78;;;5.52;95.92
30919;BME280;76545;51.606;5.884;2024-02-23T01:02:00;98810.16;;;5.53;94.91
30919;BME280;76545;51.606;5.884;2024-02-23T01:04:26;98810.63;;;5.43;95.71
30919;BME280;76545;51.606;5.884;2024-02-23T01:06:52;98808.50;;;5.55;96.50
30919;BME280;76545;51.606;5.884;2024-02-23T01:09:18;98816.53;;;5.60;95.99
30919;BME280;76545;51.606;5.884;2024-02-23T01:11:47;98829.28;;;5.52;95.47
30919;BME280;76545;51.606;5.884;2024-02-23T01:14:13;98811.91;;;5.52;96.53
30919;BME280;76545;51.606;5.884;2024-02-23T01:16:39;98823.38;;;5.35;96.87
30919;BME280;76545;51.606;5.884;2024-02-23T01:19:05;98834.03;;;5.41;96.48
30919;BME280;76545;51.606;5.884;2024-02-23T01:21:31;98826.16;;;5.39;96.81
30919;BME280;76545;51.606;5.884;2024-02-23T01:23:57;98831.75;;;5.27;97.62
30919;BME280;76545;51.606;5.884;2024-02-23T01:26:23;98840.78;;;5.14;96.24
30919;BME280;76545;51.606;5.884;2024-02-23T01:28:49;98832.75;;;5.31;96.99
30919;BME280;76545;51.606;5.884;2024-02-23T01:31:15;98837.16;;;5.11;96.71
30919;BME280;76545;51.606;5.884;2024-02-23T01:33:41;98839.25;;;5.20;95.40
30919;BME280;76545;51.606;5.884;2024-02-23T01:36:07;98836.13;;;5.07;96.63
30919;BME280;76545;51.606;5.884;2024-02-23T01:38:33;98829.91;;;5.46;98.44
30919;BME280;76545;51.606;5.884;2024-02-23T01:41:00;98840.22;;;5.22;96.69
30919;BME280;76545;51.606;5.884;2024-02-23T01:43:26;98837.22;;;5.12;95.30
30919;BME280;76545;51.606;5.884;2024-02-23T01:45:53;98832.28;;;5.19;96.16
30919;BME280;76545;51.606;5.884;2024-02-23T01:48:20;98840.91;;;5.17;95.22
30919;BME280;76545;51.606;5.884;2024-02-23T01:50:46;98833.41;;;5.25;95.21
30919;BME280;76545;51.606;5.884;2024-02-23T01:53:12;98842.97;;;5.25;95.41
30919;BME280;76545;51.606;5.884;2024-02-23T01:55:42;98847.78;;;5.15;94.81
30919;BME280;76545;51.606;5.884;2024-02-23T01:58:11;98838.88;;;5.32;96.13
30919;BME280;76545;51.606;5.884;2024-02-23T02:00:37;98849.56;;;5.16;95.01
30919;BME280;76545;51.606;5.884;2024-02-23T02:03:04;98857.69;;;5.03;93.99
30919;BME280;76545;51.606;5.884;2024-02-23T02:05:30;98860.50;;;5.08;95.26
30919;BME280;76545;51.606;5.884;2024-02-23T02:07:56;98864.59;;;5.44;98.58
30919;BME280;76545;51.606;5.884;2024-02-23T02:10:25;98864.75;;;5.05;94.55
30919;BME280;76545;51.606;5.884;2024-02-23T02:12:52;98865.28;;;5.18;97.59
30919;BME280;76545;51.606;5.884;2024-02-23T02:15:18;98867.78;;;5.36;97.14
30919;BME280;76545;51.606;5.884;2024-02-23T02:17:44;98878.22;;;5.36;96.65
30919;BME280;76545;51.606;5.884;2024-02-23T02:20:13;98867.25;;;5.24;96.41
30919;BME280;76545;51.606;5.884;2024-02-23T02:22:39;98866.72;;;5.11;95.87
30919;BME280;76545;51.606;5.884;2024-02-23T02:25:06;98871.91;;;5.31;96.51
30919;BME280;76545;51.606;5.884;2024-02-23T02:27:32;98879.69;;;5.10;94.81
30919;BME280;76545;51.606;5.884;2024-02-23T02:29:59;98877.16;;;5.11;95.60
30919;BME280;76545;51.606;5.884;2024-02-23T02:32:25;98883.53;;;5.18;96.99
30919;BME280;76545;51.606;5.884;2024-02-23T02:34:51;98875.66;;;5.16;94.80
30919;BME280;76545;51.606;5.884;2024-02-23T02:37:17;98892.59;;;5.26;96.01
30919;BME280;76545;51.606;5.884;2024-02-23T02:39:43;98886.53;;;5.27;93.94
30919;BME280;76545;51.606;5.884;2024-02-23T02:42:09;98886.22;;;5.00;93.82
30919;BME280;76545;51.606;5.884;2024-02-23T02:44:35;98897.97;;;4.90;94.29
30919;BME280;76545;51.606;5.884;2024-02-23T02:47:01;98892.28;;;4.99;94.37
30919;BME280;76545;51.606;5.884;2024-02-23T02:49:28;98897.63;;;5.02;95.06
30919;BME280;76545;51.606;5.884;2024-02-23T02:51:54;98894.91;;;4.99;94.37
30919;BME280;76545;51.606;5.884;2024-02-23T02:54:20;98903.13;;;4.88;94.18
30919;BME280;76545;51.606;5.884;2024-02-23T02:56:48;98913.56;;;4.88;95.71
30919;BME280;76545;51.606;5.884;2024-02-23T02:59:16;98902.09;;;5.04;95.47
30919;BME280;76545;51.606;5.884;2024-02-23T03:01:44;98906.53;;;5.07;96.86
30919;BME280;76545;51.606;5.884;2024-02-23T03:04:10;98912.31;;;5.00;97.26
30919;BME280;76545;51.606;5.884;2024-02-23T03:06:36;98918.88;;;4.91;96.81
30919;BME280;76545;51.606;5.884;2024-02-23T03:09:02;98910.63;;;5.22;96.29
30919;BME280;76545;51.606;5.884;2024-02-23T03:11:28;98900.31;;;4.84;93.82
30919;BME280;76545;51.606;5.884;2024-02-23T03:13:54;98913.50;;;4.87;94.89
30919;BME280;76545;51.606;5.884;2024-02-23T03:16:21;98898.13;;;4.93;94.91
30919;BME280;76545;51.606;5.884;2024-02-23T03:18:49;98904.47;;;5.00;95.32
30919;BME280;76545;51.606;5.884;2024-02-23T03:21:15;98904.88;;;4.89;94.23
30919;BME280;76545;51.606;5.884;2024-02-23T03:23:41;98906.47;;;5.05;96.80
30919;BME280;76545;51.606;5.884;2024-02-23T03:26:07;98917.25;;;4.93;95.24
30919;BME280;76545;51.606;5.884;2024-02-23T03:28:33;98914.16;;;4.82;93.56
30919;BME280;76545;51.606;5.884;2024-02-23T03:31:02;98920.28;;;5.03;95.49
30919;BME280;76545;51.606;5.884;2024-02-23T03:33:28;98923.56;;;4.99;93.67
30919;BME280;76545;51.606;5.884;2024-02-23T03:35:54;98935.59;;;4.95;95.83
30919;BME280;76545;51.606;5.884;2024-02-23T03:38:21;98918.63;;;5.05;94.56
30919;BME280;76545;51.606;5.884;2024-02-23T03:40:47;98920.75;;;4.94;94.79
30919;BME280;76545;51.606;5.884;2024-02-23T03:43:12;98925.75;;;4.89;94.89
30919;BME280;76545;51.606;5.884;2024-02-23T03:45:38;98932.75;;;4.90;94.34
30919;BME280;76545;51.606;5.884;2024-02-23T03:48:04;98934.34;;;4.87;94.53
30919;BME280;76545;51.606;5.884;2024-02-23T03:50:30;98926.03;;;4.96;94.55
30919;BME280;76545;51.606;5.884;2024-02-23T03:52:56;98932.19;;;4.78;94.99
30919;BME280;76545;51.606;5.884;2024-02-23T03:55:22;98938.56;;;4.65;95.52
30919;BME280;76545;51.606;5.884;2024-02-23T03:57:48;98939.47;;;4.65;95.27
30919;BME280;76545;51.606;5.884;2024-02-23T04:00:15;98938.53;;;4.63;95.35
30919;BME280;76545;51.606;5.884;2024-02-23T04:02:41;98939.34;;;4.82;96.13
30919;BME280;76545;51.606;5.884;2024-02-23T04:05:07;98940.91;;;4.78;96.97
30919;BME280;76545;51.606;5.884;2024-02-23T04:07:33;98936.88;;;4.85;95.70
30919;BME280;76545;51.606;5.884;2024-02-23T04:09:59;98948.41;;;4.90;94.74
30919;BME280;76545;51.606;5.884;2024-02-23T04:12:25;98951.75;;;4.88;95.10
30919;BME280;76545;51.606;5.884;2024-02-23T04:14:51;98950.44;;;4.78;95.32
30919;BME280;76545;51.606;5.884;2024-02-23T04:17:18;98948.81;;;4.80;94.69
30919;BME280;76545;51.606;5.884;2024-02-23T04:19:44;98948.13;;;4.84;95.16
30919;BME280;76545;51.606;5.884;2024-02-23T04:22:10;98948.25;;;4.87;94.83
30919;BME280;76545;51.606;5.884;2024-02-23T04:24:40;98954.91;;;4.80;94.55
30919;BME280;76545;51.606;5.884;2024-02-23T04:27:07;98953.28;;;4.82;95.59
30919;BME280;76545;51.606;5.884;2024-02-23T04:29:34;98959.91;;;4.76;94.58
30919;BME280;76545;51.606;5.884;2024-02-23T04:32:00;98963.53;;;4.79;93.79
30919;BME280;76545;51.606;5.884;2024-02-23T04:34:27;98967.75;;;4.96;94.75
30919;BME280;76545;51.606;5.884;2024-02-23T04:36:54;98971.19;;;4.95;96.03
30919;BME280;76545;51.606;5.884;2024-02-23T04:39:20;98968.59;;;4.95;95.22
30919;BME280;76545;51.606;5.884;2024-02-23T04:41:47;98975.03;;;4.83;95.84
30919;BME280;76545;51.606;5.884;2024-02-23T04:44:13;98978.72;;;4.88;94.24
30919;BME280;76545;51.606;5.884;2024-02-23T04:46:39;98985.47;;;4.83;95.31
30919;BME280;76545;51.606;5.884;2024-02-23T04:49:05;98983.81;;;4.85;95.13
30919;BME280;76545;51.606;5.884;2024-02-23T04:51:31;98992.72;;;4.90;95.52
30919;BME280;76545;51.606;5.884;2024-02-23T04:53:57;98987.50;;;4.90;95.74
30919;BME280;76545;51.606;5.884;2024-02-23T04:56:23;98991.97;;;4.93;94.66
30919;BME280;76545;51.606;5.884;2024-02-23T04:58:50;98992.69;;;5.09;95.88
30919;BME280;76545;51.606;5.884;2024-02-23T05:01:16;98990.91;;;4.89;94.07
30919;BME280;76545;51.606;5.884;2024-02-23T05:03:42;98984.63;;;5.04;94.60
30919;BME280;76545;51.606;5.884;2024-02-23T05:06:08;98983.00;;;5.06;95.63
30919;BME280;76545;51.606;5.884;2024-02-23T05:08:34;98988.59;;;5.15;95.35
30919;BME280;76545;51.606;5.884;2024-02-23T05:11:00;98988.47;;;5.12;94.23
30919;BME280;76545;51.606;5.884;2024-02-23T05:13:26;98984.97;;;5.12;95.57
30919;BME280;76545;51.606;5.884;2024-02-23T05:15:55;98985.31;;;5.20;95.33
30919;BME280;76545;51.606;5.884;2024-02-23T05:18:21;98982.88;;;5.03;93.97
30919;BME280;76545;51.606;5.884;2024-02-23T05:20:47;98979.00;;;4.95;94.05
30919;BME280;76545;51.606;5.884;2024-02-23T05:23:14;98979.28;;;5.01;95.39
30919;BME280;76545;51.606;5.884;2024-02-23T05:25:42;98980.84;;;5.17;95.77
30919;BME280;76545;51.606;5.884;2024-02-23T05:28:07;98971.03;;;5.11;95.17
30919;BME280;76545;51.606;5.884;2024-02-23T05:30:33;98987.38;;;5.07;93.46
30919;BME280;76545;51.606;5.884;2024-02-23T05:32:59;98994.38;;;5.08;95.84
30919;BME280;76545;51.606;5.884;2024-02-23T05:35:29;98993.75;;;5.14;93.71
30919;BME280;76545;51.606;5.884;2024-02-23T05:37:55;98985.59;;;5.06;94.50
30919;BME280;76545;51.606;5.884;2024-02-23T05:40:21;98997.13;;;5.11;94.08
30919;BME280;76545;51.606;5.884;2024-02-23T05:42:47;98987.97;;;5.21;93.68
30919;BME280;76545;51.606;5.884;2024-02-23T05:45:13;98984.28;;;5.16;94.56
30919;BME280;76545;51.606;5.884;2024-02-23T05:47:39;98990.88;;;5.27;94.21
30919;BME280;76545;51.606;5.884;2024-02-23T05:50:08;98998.50;;;5.23;92.52
30919;BME280;76545;51.606;5.884;2024-02-23T05:52:35;98986.50;;;5.26;94.05
30919;BME280;76545;51.606;5.884;2024-02-23T05:55:03;98990.53;;;5.20;93.05
30919;BME280;76545;51.606;5.884;2024-02-23T05:57:32;98996.66;;;5.20;92.98
30919;BME280;76545;51.606;5.884;2024-02-23T05:59:58;98987.19;;;5.22;92.70
30919;BME280;76545;51.606;5.884;2024-02-23T06:02:24;98987.31;;;5.25;93.13
30919;BME280;76545;51.606;5.884;2024-02-23T06:04:50;98988.06;;;5.43;94.73
30919;BME280;76545;51.606;5.884;2024-02-23T06:07:16;98980.91;;;5.38;93.36
30919;BME280;76545;51.606;5.884;2024-02-23T06:09:45;98978.84;;;5.31;94.66
30919;BME280;76545;51.606;5.884;2024-02-23T06:12:11;98975.16;;;5.26;92.82
30919;BME280;76545;51.606;5.884;2024-02-23T06:14:37;98972.50;;;5.24;92.83
30919;BME280;76545;51.606;5.884;2024-02-23T06:17:03;98974.25;;;5.25;92.36
30919;BME280;76545;51.606;5.884;2024-02-23T06:19:29;98977.34;;;5.36;92.01
30919;BME280;76545;51.606;5.884;2024-02-23T06:21:55;98975.44;;;5.32;92.68
30919;BME280;76545;51.606;5.884;2024-02-23T06:24:21;98975.16;;;5.26;93.45
30919;BME280;76545;51.606;5.884;2024-02-23T06:26:47;98970.34;;;5.35;93.30
30919;BME280;76545;51.606;5.884;2024-02-23T06:29:15;98974.59;;;5.33;92.19
30919;BME280;76545;51.606;5.884;2024-02-23T06:31:41;98974.75;;;5.36;93.05
30919;BME280;76545;51.606;5.884;2024-02-23T06:34:08;98971.72;;;5.27;90.63
30919;BME280;76545;51.606;5.884;2024-02-23T06:36:34;98958.66;;;5.27;90.77
30919;BME280;76545;51.606;5.884;2024-02-23T06:39:00;98973.22;;;5.42;91.82
30919;BME280;76545;51.606;5.884;2024-02-23T06:41:26;98970.50;;;5.38;91.11
30919;BME280;76545;51.606;5.884;2024-02-23T06:43:52;98958.50;;;5.22;91.32
30919;BME280;76545;51.606;5.884;2024-02-23T06:46:19;98976.72;;;5.42;92.58
30919;BME280;76545;51.606;5.884;2024-02-23T06:48:48;98975.44;;;5.32;91.10
30919;BME280;76545;51.606;5.884;2024-02-23T06:51:14;98969.81;;;5.43;91.79
30919;BME280;76545;51.606;5.884;2024-02-23T06:53:41;98978.16;;;5.35;91.32
30919;BME280;76545;51.606;5.884;2024-02-23T06:56:07;98972.75;;;5.31;90.11
30919;BME280;76545;51.606;5.884;2024-02-23T06:58:34;98966.91;;;5.36;90.00
30919;BME280;76545;51.606;5.884;2024-02-23T07:01:00;98967.53;;;5.31;88.60
30919;BME280;76545;51.606;5.884;2024-02-23T07:03:26;98965.13;;;5.35;89.33
30919;BME280;76545;51.606;5.884;2024-02-23T07:05:52;98952.06;;;5.35;88.71
30919;BME280;76545;51.606;5.884;2024-02-23T07:08:18;98953.88;;;5.36;90.09
30919;BME280;76545;51.606;5.884;2024-02-23T07:10:44;98964.44;;;5.39;90.82
30919;BME280;76545;51.606;5.884;2024-02-23T07:13:11;98958.19;;;5.36;89.16
30919;BME280;76545;51.606;5.884;2024-02-23T07:15:37;98968.13;;;5.45;90.05
30919;BME280;76545;51.606;5.884;2024-02-23T07:18:03;98964.44;;;5.39;90.04
30919;BME280;76545;51.606;5.884;2024-02-23T07:20:29;98971.97;;;5.53;90.80
30919;BME280;76545;51.606;5.884;2024-02-23T07:22:55;98966.28;;;5.42;90.16
30919;BME280;76545;51.606;5.884;2024-02-23T07:25:22;98989.84;;;5.44;90.11
30919;BME280;76545;51.606;5.884;2024-02-23T07:27:48;98982.34;;;5.51;91.82
30919;BME280;76545;51.606;5.884;2024-02-23T07:30:15;98987.81;;;5.58;90.97
30919;BME280;76545;51.606;5.884;2024-02-23T07:32:42;98979.72;;;5.51;90.13
30919;BME280;76545;51.606;5.884;2024-02-23T07:35:09;98982.72;;;5.61;90.71
30919;BME280;76545;51.606;5.884;2024-02-23T07:37:36;98988.72;;;5.58;90.96
30919;BME280;76545;51.606;5.884;2024-02-23T07:40:02;98994.19;;;5.64;91.45
30919;BME280;76545;51.606;5.884;2024-02-23T07:42:31;98980.91;;;5.58;90.57
30919;BME280;76545;51.606;5.884;2024-02-23T07:44:57;98990.97;;;5.70;93.29
30919;BME280;76545;51.606;5.884;2024-02-23T07:47:23;98982.94;;;5.66;90.21
30919;BME280;76545;51.606;5.884;2024-02-23T07:49:49;98992.03;;;5.75;92.86
30919;BME280;76545;51.606;5.884;2024-02-23T07:52:17;98986.44;;;5.66;90.49
30919;BME280;76545;51.606;5.884;2024-02-23T07:54:43;98989.13;;;5.68;90.48
30919;BME280;76545;51.606;5.884;2024-02-23T07:57:08;98978.47;;;5.63;90.13
30919;BME280;76545;51.606;5.884;2024-02-23T07:59:34;98971.91;;;5.73;90.90
30919;BME280;76545;51.606;5.884;2024-02-23T08:02:01;98974.66;;;5.76;90.07
30919;BME280;76545;51.606;5.884;2024-02-23T08:04:27;98970.25;;;5.75;88.00
30919;BME280;76545;51.606;5.884;2024-02-23T08:06:53;98969.56;;;5.79;88.87
30919;BME280;76545;51.606;5.884;2024-02-23T08:09:19;98981.34;;;5.91;90.08
30919;BME280;76545;51.606;5.884;2024-02-23T08:11:45;98980.31;;;5.87;88.48
30919;BME280;76545;51.606;5.884;2024-02-23T08:14:12;98982.34;;;5.94;89.41
30919;BME280;76545;51.606;5.884;2024-02-23T08:16:38;98987.41;;;5.90;88.85
30919;BME280;76545;51.606;5.884;2024-02-23T08:19:04;98993.84;;;5.98;89.26
30919;BME280;76545;51.606;5.884;2024-02-23T08:21:30;98984.16;;;5.95;87.97
30919;BME280;76545;51.606;5.884;2024-02-23T08:23:56;98980.59;;;5.93;88.54
30919;BME280;76545;51.606;5.884;2024-02-23T08:26:22;98982.56;;;5.99;90.84
30919;BME280;76545;51.606;5.884;2024-02-23T08:28:48;98983.25;;;5.95;89.96
30919;BME280;76545;51.606;5.884;2024-02-23T08:31:14;98977.13;;;5.94;87.43
30919;BME280;76545;51.606;5.884;2024-02-23T08:33:42;98981.25;;;6.09;89.24
30919;BME280;76545;51.606;5.884;2024-02-23T08:36:08;98976.63;;;6.03;87.96
30919;BME280;76545;51.606;5.884;2024-02-23T08:38:34;98971.41;;;6.03;88.29
30919;BME280;76545;51.606;5.884;2024-02-23T08:41:00;98972.38;;;6.05;87.71
30919;BME280;76545;51.606;5.884;2024-02-23T08:43:26;98963.03;;;6.10;88.77
30919;BME280;76545;51.606;5.884;2024-02-23T08:45:52;98970.16;;;6.15;88.68
30919;BME280;76545;51.606;5.884;2024-02-23T08:48:18;98971.00;;;6.14;87.86
30919;BME280;76545;51.606;5.884;2024-02-23T08:50:44;98969.41;;;6.17;87.00
30919;BME280;76545;51.606;5.884;2024-02-23T08:53:10;98966.34;;;6.28;91.35
30919;BME280;76545;51.606;5.884;2024-02-23T08:55:36;98969.91;;;6.30;89.63
30919;BME280;76545;51.606;5.884;2024-02-23T08:58:02;98969.09;;;6.32;91.12
30919;BME280;76545;51.606;5.884;2024-02-23T09:00:28;98959.56;;;6.33;89.55
30919;BME280;76545;51.606;5.884;2024-02-23T09:02:54;98963.94;;;6.34;89.50
30919;BME280;76545;51.606;5.884;2024-02-23T09:05:20;98951.72;;;6.33;87.72
30919;BME280;76545;51.606;5.884;2024-02-23T09:07:46;98950.00;;;6.33;89.28
30919;BME280;76545;51.606;5.884;2024-02-23T09:10:12;98955.69;;;6.46;87.32
30919;BME280;76545;51.606;5.884;2024-02-23T09:12:38;98959.31;;;6.50;84.91
30919;BME280;76545;51.606;5.884;2024-02-23T09:15:05;98954.41;;;6.57;87.50
30919;BME280;76545;51.606;5.884;2024-02-23T09:17:31;98952.50;;;6.53;87.24
30919;BME280;76545;51.606;5.884;2024-02-23T09:19:57;98958.78;;;6.58;90.58
30919;BME280;76545;51.606;5.884;2024-02-23T09:22:23;98954.28;;;6.54;87.69
30919;BME280;76545;51.606;5.884;2024-02-23T09:24:50;98959.63;;;6.57;89.65
30919;BME280;76545;51.606;5.884;2024-02-23T09:27:16;98952.66;;;6.58;87.34
30919;BME280;76545;51.606;5.884;2024-02-23T09:29:42;98959.50;;;6.54;88.04
30919;BME280;76545;51.606;5.884;2024-02-23T09:32:08;98952.59;;;6.56;88.16
30919;BME280;76545;51.606;5.884;2024-02-23T09:34:34;98957.84;;;6.56;86.21
30919;BME280;76545;51.606;5.884;2024-02-23T09:37:00;98969.28;;;6.60;87.10
30919;BME280;76545;51.606;5.884;2024-02-23T09:39:26;98961.22;;;6.54;86.22
30919;BME280;76545;51.606;5.884;2024-02-23T09:41:56;98959.69;;;6.59;86.99
30919;BME280;76545;51.606;5.884;2024-02-23T09:44:34;98952.72;;;6.60;86.78
30919;BME280;76545;51.606;5.884;2024-02-23T09:47:01;98965.22;;;6.67;84.95
30919;BME280;76545;51.606;5.884;2024-02-23T09:49:40;98959.84;;;6.64;85.21
30919;BME280;76545;51.606;5.884;2024-02-23T09:52:10;98967.22;;;6.74;84.82
30919;BME280;76545;51.606;5.884;2024-02-23T09:54:37;98968.13;;;6.75;84.68
30919;BME280;76545;51.606;5.884;2024-02-23T09:57:07;98970.78;;;6.76;83.76
30919;BME280;76545;51.606;5.884;2024-02-23T09:59:34;98962.13;;;6.77;83.75
30919;BME280;76545;51.606;5.884;2024-02-23T10:02:02;98973.44;;;6.78;84.54
30919;BME280;76545;51.606;5.884;2024-02-23T10:04:32;98982.19;;;6.78;85.02
30919;BME280;76545;51.606;5.884;2024-02-23T10:06:58;98984.91;;;6.81;85.57
30919;BME280;76545;51.606;5.884;2024-02-23T10:09:24;98986.47;;;6.76;85.02
30919;BME280;76545;51.606;5.884;2024-02-23T10:11:54;98980.34;;;6.76;83.02
30919;BME280;76545;51.606;5.884;2024-02-23T10:14:21;98996.88;;;6.75;86.95
30919;BME280;76545;51.606;5.884;2024-02-23T10:16:47;99005.38;;;6.69;85.51
30919;BME280;76545;51.606;5.884;2024-02-23T10:19:18;99005.47;;;6.72;86.75
30919;BME280;76545;51.606;5.884;2024-02-23T10:21:45;99017.75;;;6.73;nan
30919;BME280;76545;51.606;5.884;2024-02-23T10:24:11;99009.75;;;6.70;86.11
30919;BME280;76545;51.606;5.884;2024-02-23T10:26:37;99005.66;;;6.77;86.23
30919;BME280;76545;51.606;5.884;2024-02-23T10:29:03;99001.91;;;6.70;86.45
30919;BME280;76545;51.606;5.884;2024-02-23T10:31:34;99005.31;;;6.67;84.52
30919;BME280;76545;51.606;5.884;2024-02-23T10:34:08;99014.16;;;6.71;85.54
30919;BME280;76545;51.606;5.884;2024-02-23T10:36:41;99017.59;;;6.70;84.06
30919;BME280;76545;51.606;5.884;2024-02-23T10:39:08;99012.25;;;6.67;84.67
30919;BME280;76545;51.606;5.884;2024-02-23T10:41:35;99028.75;;;6.66;84.89
30919;BME280;76545;51.606;5.884;2024-02-23T10:44:05;99020.81;;;6.63;84.73
30919;BME280;76545;51.606;5.884;2024-02-23T10:46:32;99027.16;;;6.69;86.69
30919;BME280;76545;51.606;5.884;2024-02-23T10:48:58;99048.06;;;6.69;86.41
30919;BME280;76545;51.606;5.884;2024-02-23T10:51:28;99034.91;;;6.66;84.56
30919;BME280;76545;51.606;5.884;2024-02-23T10:53:54;99037.63;;;6.69;85.93
30919;BME280;76545;51.606;5.884;2024-02-23T10:56:21;99044.69;;;6.72;86.75
30919;BME280;76545;51.606;5.884;2024-02-23T10:58:48;99040.38;;;6.73;84.82
30919;BME280;76545;51.606;5.884;2024-02-23T11:01:14;99039.59;;;6.75;85.59
30919;BME280;76545;51.606;5.884;2024-02-23T11:03:43;99038.88;;;6.79;86.68
30919;BME280;76545;51.606;5.884;2024-02-23T11:06:12;99041.56;;;6.81;84.05
30919;BME280;76545;51.606;5.884;2024-02-23T11:08:38;99036.59;;;6.87;85.97
30919;BME280;76545;51.606;5.884;2024-02-23T11:11:08;99042.81;;;6.91;85.27
30919;BME280;76545;51.606;5.884;2024-02-23T11:13:36;99042.97;;;6.96;85.35
30919;BME280;76545;51.606;5.884;2024-02-23T11:16:03;99046.59;;;6.99;85.33
30919;BME280;76545;51.606;5.884;2024-02-23T11:18:29;99042.22;;;6.98;86.90
30919;BME280;76545;51.606;5.884;2024-02-23T11:20:56;99056.19;;;6.99;85.44
30919;BME280;76545;51.606;5.884;2024-02-23T11:23:24;99047.50;;;7.00;83.84
30919;BME280;76545;51.606;5.884;2024-02-23T11:28:29;99046.31;;;6.91;84.10
30919;BME280;76545;51.606;5.884;2024-02-23T11:30:56;99048.06;;;6.91;84.60
30919;BME280;76545;51.606;5.884;2024-02-23T11:33:38;99040.97;;;6.88;86.67
30919;BME280;76545;51.606;5.884;2024-02-23T11:36:08;99055.81;;;6.89;83.86
30919;BME280;76545;51.606;5.884;2024-02-23T11:38:34;99046.25;;;6.90;85.42
30919;BME280;76545;51.606;5.884;2024-02-23T11:41:02;99049.75;;;6.90;84.10
30919;BME280;76545;51.606;5.884;2024-02-23T11:43:28;99043.69;;;6.91;84.74
30919;BME280;76545;51.606;5.884;2024-02-23T11:45:54;99056.72;;;6.90;84.53
30919;BME280;76545;51.606;5.884;2024-02-23T11:48:20;99058.50;;;6.91;84.89
30919;BME280;76545;51.606;5.884;2024-02-23T11:50:50;99058.56;;;6.92;85.45
30919;BME280;76545;51.606;5.884;2024-02-23T11:53:16;99054.16;;;6.91;83.61
30919;BME280;76545;51.606;5.884;2024-02-23T11:55:42;99058.50;;;6.91;85.00
30919;BME280;76545;51.606;5.884;2024-02-23T11:58:08;99054.16;;;6.91;84.08
30919;BME280;76545;51.606;5.884;2024-02-23T12:00:35;99058.50;;;6.91;85.61
30919;BME280;76545;51.606;5.884;2024-02-23T12:03:01;99065.50;;;6.92;85.39
30919;BME280;76545;51.606;5.884;2024-02-23T12:05:27;99063.75;;;6.91;88.18
30919;BME280;76545;51.606;5.884;2024-02-23T12:07:54;99064.50;;;6.88;88.13
30919;BME280;76545;51.606;5.884;2024-02-23T12:10:20;99059.16;;;6.85;87.22
30919;BME280;76545;51.606;5.884;2024-02-23T12:12:47;99057.41;;;6.86;87.89
30919;BME280;76545;51.606;5.884;2024-02-23T12:15:13;99068.78;;;6.86;86.89
30919;BME280;76545;51.606;5.884;2024-02-23T12:17:59;99063.53;;;6.86;86.63
30919;BME280;76545;51.606;5.884;2024-02-23T12:20:26;99051.38;;;6.87;87.36
30919;BME280;76545;51.606;5.884;2024-02-23T12:22:55;99055.69;;;6.86;86.50
30919;BME280;76545;51.606;5.884;2024-02-23T12:25:22;99053.13;;;6.88;85.91
30919;BME280;76545;51.606;5.884;2024-02-23T12:27:54;99058.50;;;6.91;88.08
30919;BME280;76545;51.606;5.884;2024-02-23T12:30:21;99053.03;;;6.85;87.30
30919;BME280;76545;51.606;5.884;2024-02-23T12:32:47;99061.69;;;6.84;87.58
30919;BME280;76545;51.606;5.884;2024-02-23T12:35:14;99059.31;;;6.90;87.86
30919;BME280;76545;51.606;5.884;2024-02-23T12:37:40;99056.72;;;6.90;87.06
30919;BME280;76545;51.606;5.884;2024-02-23T12:40:09;99057.59;;;6.90;86.23
30919;BME280;76545;51.606;5.884;2024-02-23T12:42:35;99069.06;;;6.94;87.50
30919;BME280;76545;51.606;5.884;2024-02-23T12:45:02;99063.84;;;6.94;86.18
30919;BME280;76545;51.606;5.884;2024-02-23T12:47:28;99065.66;;;6.95;87.36
30919;BME280;76545;51.606;5.884;2024-02-23T12:49:54;99067.41;;;6.96;86.47
30919;BME280;76545;51.606;5.884;2024-02-23T12:52:20;99062.94;;;6.93;85.98
30919;BME280;76545;51.606;5.884;2024-02-23T12:54:46;99058.72;;;6.97;84.68
30919;BME280;76545;51.606;5.884;2024-02-23T12:57:12;99069.50;;;7.05;88.20
30919;BME280;76545;51.606;5.884;2024-02-23T12:59:38;99071.47;;;7.11;87.23
30919;BME280;76545;51.606;5.884;2024-02-23T13:02:06;99064.00;;;7.22;86.31
30919;BME280;76545;51.606;5.884;2024-02-23T13:04:32;99070.25;;;7.25;86.77
30919;BME280;76545;51.606;5.884;2024-02-23T13:06:58;99065.38;;;7.35;85.15
30919;BME280;76545;51.606;5.884;2024-02-23T13:09:24;99050.72;;;7.40;85.00